Weather at Narrandool Bush Strip

Public forecast

Using degrees Celsius for public forecast. Weather courtesy of forecast.io.

Closest aviation weather report (METAR) to Narrandool Bush Strip

Report is more than 6 hours old.

Closest report is Moree Airport, 103.9 nm (192.3 km) E. Retrieved 2022/06/17 21:24 UTC (8 days ago):

YMOR 172124Z AUTO 00000KT 9999 // NCD 03/02 Q1023

Closest aviation forecast (TAF) to Narrandool Bush Strip

Forecast is more than 12 hours old.

Closest forecast is Tamworth Airport, 189.2 nm (350.4 km) SE. Retrieved 2022-06-25 00:36 UTC (19 hours ago):

TAF YSTW 242314Z 2500/2518 20006KT CAVOK FM250800 VRB03KT CAVOK